createdAt,value
2018-09-20T00:00:50.772Z,3.50
2018-09-20T00:03:19.587Z,4.13
2018-09-20T00:05:48.707Z,3.57
2018-09-20T00:08:17.154Z,4.40
2018-09-20T00:10:47.144Z,4.00
2018-09-20T00:13:15.573Z,4.30
2018-09-20T00:15:44.225Z,3.90
2018-09-20T00:18:13.107Z,4.50
2018-09-20T00:20:42.795Z,4.47
2018-09-20T00:23:11.968Z,3.53
2018-09-20T00:25:40.610Z,4.07
2018-09-20T00:28:09.043Z,4.47
2018-09-20T00:30:38.111Z,3.60
2018-09-20T00:33:07.058Z,4.63
2018-09-20T00:35:36.073Z,4.17
2018-09-20T00:38:05.297Z,4.20
2018-09-20T00:40:34.920Z,3.97
2018-09-20T00:43:03.786Z,3.27
2018-09-20T00:45:32.465Z,3.50
2018-09-20T00:48:01.347Z,4.80
2018-09-20T00:50:30.427Z,3.77
2018-09-20T00:52:59.000Z,4.50
2018-09-20T00:55:28.725Z,4.53
2018-09-20T00:57:57.263Z,4.20
2018-09-20T01:00:25.915Z,4.47
2018-09-20T01:02:54.736Z,3.87
2018-09-20T01:05:25.889Z,3.80
2018-09-20T01:07:54.805Z,4.40
2018-09-20T01:10:25.495Z,4.00
2018-09-20T01:12:54.373Z,4.20
2018-09-20T01:15:25.359Z,4.67
2018-09-20T01:17:54.228Z,4.10
2018-09-20T01:20:23.624Z,3.80
2018-09-20T01:22:52.057Z,4.10
2018-09-20T01:25:21.129Z,4.10
2018-09-20T01:27:50.596Z,3.53
2018-09-20T01:30:19.359Z,3.63
2018-09-20T01:32:48.228Z,4.17
2018-09-20T01:35:17.181Z,4.70
2018-09-20T01:37:46.075Z,4.50
2018-09-20T01:40:14.729Z,3.70
2018-09-20T01:42:43.654Z,3.83
2018-09-20T01:45:12.766Z,4.90
2018-09-20T01:47:41.697Z,4.13
2018-09-20T01:50:10.774Z,4.53
2018-09-20T01:52:39.636Z,4.27
2018-09-20T01:55:08.656Z,4.83
2018-09-20T01:57:37.510Z,4.67
2018-09-20T02:00:06.740Z,3.33
2018-09-20T02:02:35.640Z,4.87
2018-09-20T02:05:05.110Z,4.03
2018-09-20T02:07:34.031Z,4.20
2018-09-20T02:10:03.097Z,3.97
2018-09-20T02:12:31.994Z,4.60
2018-09-20T02:15:01.027Z,4.37
2018-09-20T02:17:29.951Z,4.77
2018-09-20T02:19:59.001Z,4.63
2018-09-20T02:22:27.875Z,5.07
2018-09-20T02:24:57.219Z,3.80
2018-09-20T02:27:26.088Z,4.23
2018-09-20T02:29:54.696Z,4.13
2018-09-20T02:32:23.606Z,3.87
2018-09-20T02:34:52.314Z,3.67
2018-09-20T02:37:21.206Z,4.17
2018-09-20T02:39:49.879Z,3.97
2018-09-20T02:42:18.757Z,4.90
2018-09-20T02:44:48.347Z,4.27
2018-09-20T02:47:16.843Z,3.70
2018-09-20T02:49:45.880Z,4.23
2018-09-20T02:52:14.797Z,4.53
2018-09-20T02:54:44.761Z,4.43
2018-09-20T02:57:13.683Z,5.00
2018-09-20T02:59:42.693Z,4.50
2018-09-20T03:02:11.630Z,4.60
2018-09-20T03:04:40.654Z,4.80
2018-09-20T03:07:09.568Z,4.50
2018-09-20T03:09:39.668Z,4.60
2018-09-20T03:12:08.580Z,5.47
2018-09-20T03:14:37.660Z,4.83
2018-09-20T03:17:06.589Z,4.57
2018-09-20T03:19:36.237Z,4.53
2018-09-20T03:22:04.718Z,4.37
2018-09-20T03:24:33.380Z,5.00
2018-09-20T03:27:02.323Z,5.07
2018-09-20T03:29:34.523Z,4.67
2018-09-20T03:32:03.424Z,4.87
2018-09-20T03:34:32.527Z,4.83
2018-09-20T03:37:01.010Z,4.50
2018-09-20T03:39:30.062Z,5.20
2018-09-20T03:41:58.995Z,4.70
2018-09-20T03:44:28.082Z,4.60
2018-09-20T03:46:57.022Z,4.73
2018-09-20T03:49:25.577Z,4.40
2018-09-20T03:51:54.078Z,4.60
2018-09-20T03:54:23.082Z,5.10
2018-09-20T03:56:51.633Z,4.77
2018-09-20T03:59:20.276Z,4.97
2018-09-20T04:01:49.197Z,4.70
2018-09-20T04:04:18.259Z,4.63
2018-09-20T04:06:47.127Z,4.60
2018-09-20T04:09:16.262Z,4.57
2018-09-20T04:11:45.141Z,5.47
2018-09-20T04:14:14.224Z,5.07
2018-09-20T04:16:43.092Z,4.20
2018-09-20T04:19:13.173Z,5.50
2018-09-20T04:21:41.641Z,4.77
2018-09-20T04:24:10.677Z,5.00
2018-09-20T04:26:39.614Z,4.67
2018-09-20T04:29:10.223Z,4.63
2018-09-20T04:31:38.731Z,4.80
2018-09-20T04:34:07.751Z,4.43
2018-09-20T04:36:36.226Z,5.73
2018-09-20T04:39:08.151Z,4.37
2018-09-20T04:41:36.663Z,4.73
2018-09-20T04:44:05.768Z,4.57
2018-09-20T04:46:34.208Z,5.03
2018-09-20T04:49:04.167Z,5.33
2018-09-20T04:51:33.096Z,5.67
2018-09-20T04:54:02.075Z,4.87
2018-09-20T04:56:30.550Z,5.07
2018-09-20T04:58:59.581Z,4.60
2018-09-20T05:01:28.520Z,4.57
2018-09-20T05:03:59.080Z,5.07
2018-09-20T05:06:27.726Z,4.60
2018-09-20T05:08:57.781Z,5.47
2018-09-20T05:11:26.870Z,5.77
2018-09-20T05:13:55.767Z,5.77
2018-09-20T05:16:26.813Z,5.10
2018-09-20T05:18:55.770Z,4.63
2018-09-20T05:21:24.402Z,4.70
2018-09-20T05:23:53.200Z,4.50
2018-09-20T05:26:21.787Z,4.63
2018-09-20T05:28:50.672Z,5.10
2018-09-20T05:31:19.921Z,4.77
2018-09-20T05:33:48.796Z,4.77
2018-09-20T05:36:17.772Z,4.80
2018-09-20T05:38:46.741Z,4.80
2018-09-20T05:41:15.847Z,4.60
2018-09-20T05:43:44.824Z,5.40
2018-09-20T05:46:13.875Z,4.53
2018-09-20T05:48:42.807Z,4.70
2018-09-20T05:51:12.848Z,4.83
2018-09-20T05:53:41.786Z,4.40
2018-09-20T05:56:10.434Z,5.60
2018-09-20T05:58:39.326Z,4.70
2018-09-20T06:01:08.959Z,5.00
2018-09-20T06:03:37.801Z,4.77
2018-09-20T06:06:06.847Z,4.70
2018-09-20T06:08:35.747Z,5.27
2018-09-20T06:11:05.891Z,5.67
2018-09-20T06:13:34.804Z,4.30
2018-09-20T06:16:03.380Z,4.03
2018-09-20T06:18:32.233Z,4.73
2018-09-20T06:21:00.847Z,4.83
2018-09-20T06:23:29.740Z,4.87
2018-09-20T06:25:59.730Z,5.37
2018-09-20T06:28:28.681Z,4.17
2018-09-20T06:30:57.972Z,4.20
2018-09-20T06:33:26.840Z,4.20
2018-09-20T06:35:55.847Z,4.63
2018-09-20T06:38:24.764Z,4.30
2018-09-20T06:40:53.799Z,4.40
2018-09-20T06:43:22.690Z,4.30
2018-09-20T06:45:51.672Z,4.43
2018-09-20T06:48:20.586Z,4.60
2018-09-20T06:50:49.527Z,5.03
2018-09-20T06:53:18.432Z,4.10
2018-09-20T06:55:48.832Z,4.33
2018-09-20T06:58:17.288Z,5.30
2018-09-20T07:00:47.294Z,4.03
2018-09-20T07:03:16.221Z,4.17
2018-09-20T07:05:45.239Z,4.63
2018-09-20T07:08:13.700Z,4.10
2018-09-20T07:10:42.742Z,4.23
2018-09-20T07:13:11.597Z,3.80
2018-09-20T07:15:40.611Z,4.20
2018-09-20T07:18:09.494Z,4.00
2018-09-20T07:20:38.536Z,4.90
2018-09-20T07:23:07.291Z,4.50
2018-09-20T07:25:36.253Z,3.83
2018-09-20T07:28:05.498Z,4.23
2018-09-20T07:30:34.447Z,4.13
2018-09-20T07:33:03.332Z,3.97
2018-09-20T07:35:32.371Z,4.13
2018-09-20T07:38:01.330Z,4.10
2018-09-20T07:40:30.339Z,4.70
2018-09-20T07:42:59.205Z,3.67
2018-09-20T07:45:28.532Z,4.00
2018-09-20T07:47:57.394Z,4.83
2018-09-20T07:50:26.367Z,4.57
2018-09-20T07:52:55.615Z,4.70
2018-09-20T07:55:25.708Z,4.63
2018-09-20T07:57:54.682Z,4.20
2018-09-20T08:00:23.732Z,4.33
2018-09-20T08:02:52.659Z,4.07
2018-09-20T08:05:21.650Z,4.30
2018-09-20T08:07:50.623Z,3.77
2018-09-20T08:10:20.588Z,4.23
2018-09-20T08:12:49.527Z,3.97
2018-09-20T08:15:20.165Z,3.97
2018-09-20T08:17:48.608Z,3.93
2018-09-20T08:20:17.591Z,4.47
2018-09-20T08:22:46.475Z,4.57
2018-09-20T08:25:15.448Z,4.00
2018-09-20T08:27:44.309Z,3.90
2018-09-20T08:30:13.283Z,3.90
2018-09-20T08:32:41.739Z,3.73
2018-09-20T08:35:10.375Z,3.73
2018-09-20T08:37:39.357Z,4.33
2018-09-20T08:40:08.397Z,4.20
2018-09-20T08:42:37.255Z,4.23
2018-09-20T08:45:06.961Z,3.37
2018-09-20T08:47:35.926Z,3.70
2018-09-20T08:50:06.048Z,4.43
2018-09-20T08:52:34.947Z,4.37
2018-09-20T08:55:03.548Z,4.20
2018-09-20T08:57:37.720Z,4.07
2018-09-20T09:00:08.188Z,3.70
2018-09-20T09:02:37.775Z,4.53
2018-09-20T09:05:06.671Z,6.20
2018-09-20T09:07:35.574Z,4.00
2018-09-20T09:10:04.559Z,3.83
2018-09-20T09:12:33.570Z,4.30
2018-09-20T09:15:02.490Z,3.93
2018-09-20T09:17:31.467Z,3.77
2018-09-20T09:20:00.399Z,4.23
2018-09-20T09:22:29.390Z,3.63
2018-09-20T09:24:58.275Z,4.13
2018-09-20T09:27:28.266Z,3.57
2018-09-20T09:29:57.183Z,3.53
2018-09-20T09:32:26.200Z,3.73
2018-09-20T09:34:54.671Z,3.30
2018-09-20T09:37:23.615Z,3.77
2018-09-20T09:39:52.560Z,3.97
2018-09-20T09:42:22.646Z,3.83
2018-09-20T09:44:51.519Z,3.40
2018-09-20T09:47:20.630Z,3.20
2018-09-20T09:49:49.465Z,3.57
2018-09-20T09:52:18.637Z,3.90
2018-09-20T09:54:47.606Z,3.23
2018-09-20T09:57:16.710Z,3.30
2018-09-20T09:59:45.623Z,3.27
2018-09-20T10:02:14.776Z,3.90
2018-09-20T10:04:43.686Z,3.20
2018-09-20T10:07:12.823Z,3.33
2018-09-20T10:09:41.327Z,3.13
2018-09-20T10:12:10.576Z,2.90
2018-09-20T10:14:39.449Z,3.27
2018-09-20T10:17:08.793Z,2.80
2018-09-20T10:19:37.712Z,3.27
2018-09-20T10:22:06.879Z,3.40
2018-09-20T10:24:35.817Z,3.20
2018-09-20T10:27:04.937Z,3.70
2018-09-20T10:29:34.100Z,2.80
2018-09-20T10:32:06.423Z,2.80
2018-09-20T10:34:34.937Z,2.73
2018-09-20T10:37:03.569Z,2.87
2018-09-20T10:39:32.666Z,2.80
2018-09-20T10:42:01.797Z,3.47
2018-09-20T10:44:30.717Z,3.63
2018-09-20T10:47:00.747Z,3.37
2018-09-20T10:49:29.647Z,3.10
2018-09-20T10:51:58.767Z,3.50
2018-09-20T10:54:27.678Z,3.20
2018-09-20T10:56:57.801Z,3.63
2018-09-20T10:59:26.674Z,3.00
2018-09-20T11:01:56.337Z,3.03
2018-09-20T11:04:25.285Z,3.17
2018-09-20T11:06:53.975Z,3.13
2018-09-20T11:09:22.879Z,3.10
2018-09-20T11:11:52.053Z,3.33
2018-09-20T11:14:20.984Z,3.33
2018-09-20T11:16:49.960Z,2.87
2018-09-20T11:19:18.867Z,3.20
2018-09-20T11:21:47.889Z,3.57
2018-09-20T11:24:16.874Z,3.27
2018-09-20T11:26:45.988Z,3.20
2018-09-20T11:29:14.878Z,2.97
2018-09-20T11:31:43.998Z,3.33
2018-09-20T11:34:12.889Z,3.43
2018-09-20T11:36:42.473Z,2.83
2018-09-20T11:39:13.027Z,2.80
2018-09-20T11:41:42.128Z,3.97
2018-09-20T11:44:11.115Z,3.23
2018-09-20T11:46:45.990Z,3.20
2018-09-20T11:49:14.906Z,3.70
2018-09-20T11:51:44.327Z,3.50
2018-09-20T11:54:13.209Z,3.70
2018-09-20T11:56:43.835Z,3.87
2018-09-20T11:59:12.746Z,3.10
2018-09-20T12:01:45.673Z,3.50
2018-09-20T12:04:14.622Z,3.40
2018-09-20T12:06:43.292Z,3.33
2018-09-20T12:09:12.159Z,3.10
2018-09-20T12:11:41.270Z,3.30
2018-09-20T12:14:10.180Z,3.43
2018-09-20T12:16:39.228Z,2.97
2018-09-20T12:19:08.148Z,3.40
2018-09-20T12:21:36.763Z,3.00
2018-09-20T12:24:05.166Z,2.90
2018-09-20T12:26:34.223Z,3.20
2018-09-20T12:29:03.179Z,3.57
2018-09-20T12:31:33.256Z,2.73
2018-09-20T12:34:02.186Z,3.10
2018-09-20T12:36:31.267Z,2.93
2018-09-20T12:39:00.324Z,2.80
2018-09-20T12:41:29.430Z,3.20
2018-09-20T12:43:58.319Z,2.93
2018-09-20T12:46:27.307Z,2.70
2018-09-20T12:48:56.229Z,2.70
2018-09-20T12:51:27.305Z,2.60
2018-09-20T12:53:56.186Z,3.30
2018-09-20T12:56:25.260Z,2.70
2018-09-20T12:58:53.734Z,3.43
2018-09-20T13:01:22.910Z,2.83
2018-09-20T13:03:52.137Z,2.07
2018-09-20T13:06:21.101Z,2.87
2018-09-20T13:08:49.992Z,2.73
2018-09-20T13:11:19.548Z,3.10
2018-09-20T13:13:48.579Z,3.10
2018-09-20T13:16:17.662Z,3.17
2018-09-20T13:18:46.548Z,3.20
2018-09-20T13:21:15.209Z,2.80
2018-09-20T13:23:44.096Z,2.50
2018-09-20T13:26:13.135Z,2.57
2018-09-20T13:28:42.188Z,2.63
2018-09-20T13:31:11.274Z,3.03
2018-09-20T13:33:40.178Z,3.03
2018-09-20T13:36:08.834Z,3.10
2018-09-20T13:38:37.743Z,3.20
2018-09-20T13:41:06.864Z,2.77
2018-09-20T13:43:35.331Z,2.90
2018-09-20T13:46:04.431Z,3.00
2018-09-20T13:48:33.357Z,2.40
2018-09-20T13:51:03.431Z,2.63
2018-09-20T13:53:32.303Z,2.47
2018-09-20T13:56:01.319Z,2.80
2018-09-20T13:58:30.261Z,2.57
2018-09-20T14:00:59.279Z,2.70
2018-09-20T14:03:28.239Z,2.47
2018-09-20T14:05:57.411Z,2.57
2018-09-20T14:08:25.866Z,2.70
2018-09-20T14:10:54.822Z,2.73
2018-09-20T14:13:23.335Z,2.93
2018-09-20T14:15:52.461Z,2.33
2018-09-20T14:18:21.388Z,2.77
2018-09-20T14:20:50.430Z,3.10
2018-09-20T14:23:19.336Z,2.47
2018-09-20T14:25:48.440Z,2.33
2018-09-20T14:28:17.439Z,2.50
2018-09-20T14:30:46.087Z,2.37
2018-09-20T14:33:14.974Z,2.90
2018-09-20T14:35:44.021Z,2.90
2018-09-20T14:38:12.882Z,2.60
2018-09-20T14:40:41.933Z,2.97
2018-09-20T14:43:10.808Z,2.60
2018-09-20T14:45:39.834Z,2.90
2018-09-20T14:48:08.841Z,3.23
2018-09-20T14:50:37.887Z,2.73
2018-09-20T14:53:06.830Z,2.67
2018-09-20T14:56:10.828Z,3.00
2018-09-20T14:58:40.820Z,2.73
2018-09-20T15:01:09.682Z,2.80
2018-09-20T15:03:38.328Z,2.93
2018-09-20T15:06:07.316Z,2.92
2018-09-20T15:08:36.367Z,2.98
2018-09-20T15:11:05.339Z,3.15
2018-09-20T15:13:34.429Z,2.30
2018-09-20T15:16:03.346Z,2.60
2018-09-20T15:18:32.381Z,2.92
2018-09-20T15:21:01.229Z,3.37
2018-09-20T15:23:30.225Z,2.65
2018-09-20T15:25:59.120Z,2.98
2018-09-20T15:28:28.783Z,2.50
2018-09-20T15:30:57.701Z,2.60
2018-09-20T15:33:26.756Z,2.80
2018-09-20T15:35:55.675Z,2.90
2018-09-20T15:38:24.289Z,2.77
2018-09-20T15:40:53.153Z,2.67
2018-09-20T15:43:22.244Z,2.58
2018-09-20T15:45:51.192Z,2.62
2018-09-20T15:48:19.773Z,2.62
2018-09-20T15:50:48.670Z,2.50
2018-09-20T15:53:18.273Z,2.77
2018-09-20T15:55:47.490Z,2.83
2018-09-20T15:58:16.607Z,2.52
2018-09-20T16:00:45.520Z,2.83
2018-09-20T16:03:14.192Z,2.10
2018-09-20T16:05:42.697Z,2.33
2018-09-20T16:08:11.382Z,2.77
2018-09-20T16:10:40.305Z,2.30
2018-09-20T16:13:10.359Z,2.47
2018-09-20T16:15:39.277Z,3.00
2018-09-20T16:18:08.347Z,2.50
2018-09-20T16:20:36.789Z,2.90
2018-09-20T16:23:06.903Z,2.70
2018-09-20T16:25:35.792Z,3.07
2018-09-20T16:28:20.196Z,2.63
2018-09-20T16:31:12.249Z,2.67
2018-09-20T16:35:49.741Z,2.53
2018-09-20T16:38:34.517Z,3.10
2018-09-20T16:41:05.949Z,2.80
2018-09-20T16:43:35.445Z,2.90
2018-09-20T16:46:04.846Z,2.90
2018-09-20T16:48:33.876Z,2.80
2018-09-20T16:51:02.354Z,2.60
2018-09-20T16:53:31.054Z,2.87
2018-09-20T16:55:59.474Z,2.73
2018-09-20T16:58:28.444Z,2.90
2018-09-20T17:00:57.351Z,3.10
2018-09-20T17:03:26.312Z,2.63
2018-09-20T17:05:55.250Z,3.13
2018-09-20T17:08:24.326Z,2.97
2018-09-20T17:11:00.426Z,3.07
2018-09-20T17:13:29.318Z,2.83
2018-09-20T17:15:58.387Z,3.53
2018-09-20T17:18:27.317Z,2.70
2018-09-20T17:20:56.384Z,3.13
2018-09-20T17:23:25.318Z,2.90
2018-09-20T17:25:55.022Z,2.80
2018-09-20T17:28:24.266Z,2.57
2018-09-20T17:30:53.610Z,3.20
2018-09-20T17:33:22.559Z,2.77
2018-09-20T17:35:52.008Z,2.73
2018-09-20T17:38:21.879Z,3.03
2018-09-20T17:40:56.302Z,3.10
2018-09-20T17:43:30.189Z,2.87
2018-09-20T17:45:59.901Z,2.90
2018-09-20T17:48:31.025Z,2.97
2018-09-20T17:51:00.713Z,3.30
2018-09-20T17:53:30.244Z,4.20
2018-09-20T17:55:59.161Z,3.43
2018-09-20T17:58:28.594Z,3.17
2018-09-20T18:00:57.124Z,2.90
2018-09-20T18:03:29.963Z,3.27
2018-09-20T18:05:58.850Z,2.90
2018-09-20T18:08:27.954Z,3.67
2018-09-20T18:10:56.824Z,3.77
2018-09-20T18:13:25.824Z,3.17
2018-09-20T18:15:54.776Z,3.20
2018-09-20T18:18:24.028Z,4.27
2018-09-20T18:20:52.610Z,3.80
2018-09-20T18:23:25.552Z,4.17
2018-09-20T18:25:54.690Z,4.20
2018-09-20T18:28:24.788Z,3.87
2018-09-20T18:30:53.741Z,3.93
2018-09-20T18:33:22.288Z,3.47
2018-09-20T18:35:51.134Z,4.13
2018-09-20T18:38:20.836Z,3.43
2018-09-20T18:40:49.739Z,3.17
2018-09-20T18:43:18.732Z,3.30
2018-09-20T18:45:47.459Z,3.60
2018-09-20T18:48:16.801Z,3.43
2018-09-20T18:50:46.248Z,3.70
2018-09-20T18:53:15.009Z,3.40
2018-09-20T18:55:43.587Z,3.57
2018-09-20T18:58:12.590Z,3.33
2018-09-20T19:00:41.270Z,3.00
2018-09-20T19:03:10.328Z,3.03
2018-09-20T19:05:39.223Z,3.60
2018-09-20T19:08:09.194Z,3.37
2018-09-20T19:10:38.401Z,3.60
2018-09-20T19:13:06.974Z,3.80
2018-09-20T19:15:35.866Z,3.13
2018-09-20T19:18:04.959Z,3.87
2018-09-20T19:20:33.637Z,3.53
2018-09-20T19:23:03.254Z,3.13
2018-09-20T19:25:31.758Z,3.47
2018-09-20T19:28:00.770Z,3.57
2018-09-20T19:30:29.681Z,3.30
2018-09-20T19:32:58.817Z,3.27
2018-09-20T19:35:27.410Z,3.80
2018-09-20T19:37:56.477Z,3.50
2018-09-20T19:40:25.449Z,3.20
2018-09-20T19:42:55.473Z,3.20
2018-09-20T19:45:24.021Z,3.60
2018-09-20T19:47:54.172Z,3.33
2018-09-20T19:50:22.775Z,3.30
2018-09-20T19:52:52.128Z,3.43
2018-09-20T19:55:20.756Z,3.70
2018-09-20T19:57:49.901Z,5.10
2018-09-20T20:00:18.921Z,3.93
2018-09-20T20:02:47.606Z,4.27
2018-09-20T20:05:16.523Z,3.40
2018-09-20T20:07:45.635Z,3.17
2018-09-20T20:10:14.090Z,3.20
2018-09-20T20:12:43.229Z,3.20
2018-09-20T20:15:11.697Z,3.43
2018-09-20T20:17:40.455Z,2.90
2018-09-20T20:20:09.360Z,3.37
2018-09-20T20:22:38.037Z,2.70
2018-09-20T20:25:06.933Z,2.70
2018-09-20T20:27:35.575Z,2.77
2018-09-20T20:30:04.531Z,2.50
2018-09-20T20:32:33.206Z,2.87
2018-09-20T20:35:01.685Z,3.10
2018-09-20T20:37:30.702Z,2.90
2018-09-20T20:39:59.613Z,3.77
2018-09-20T20:42:28.706Z,2.90
2018-09-20T20:44:57.278Z,3.00
2018-09-20T20:47:26.374Z,3.30
2018-09-20T20:49:55.405Z,3.40
2018-09-20T20:52:24.471Z,2.90
2018-09-20T20:54:52.962Z,2.90
2018-09-20T20:57:21.872Z,3.30
2018-09-20T20:59:50.344Z,3.10
2018-09-20T21:02:19.383Z,3.30
2018-09-20T21:04:48.675Z,2.97
2018-09-20T21:07:17.702Z,3.43
2018-09-20T21:09:46.601Z,3.30
2018-09-20T21:12:15.826Z,3.00
2018-09-20T21:14:44.788Z,3.67
2018-09-20T21:17:18.508Z,3.27
2018-09-20T21:19:47.046Z,3.20
2018-09-20T21:22:18.093Z,3.20
2018-09-20T21:24:46.990Z,3.50
2018-09-20T21:27:16.095Z,3.77
2018-09-20T21:29:45.410Z,3.70
2018-09-20T21:32:13.987Z,4.00
2018-09-20T21:34:42.470Z,3.67
2018-09-20T21:37:11.571Z,3.47
2018-09-20T21:39:40.125Z,3.73
2018-09-20T21:42:09.259Z,3.83
2018-09-20T21:44:38.164Z,3.37
2018-09-20T21:47:07.539Z,3.37
2018-09-20T21:49:36.383Z,3.20
2018-09-20T21:52:05.441Z,2.97
2018-09-20T21:54:34.439Z,3.07
2018-09-20T21:57:04.144Z,3.53
2018-09-20T21:59:32.985Z,3.23
2018-09-20T22:02:03.656Z,3.43
2018-09-20T22:04:32.991Z,3.07
2018-09-20T22:07:02.087Z,3.90
2018-09-20T22:09:31.525Z,3.37
2018-09-20T22:12:00.677Z,3.80
2018-09-20T22:14:29.602Z,3.50
2018-09-20T22:16:59.364Z,3.37
2018-09-20T22:19:28.284Z,3.43
2018-09-20T22:21:57.253Z,3.47
2018-09-20T22:24:26.178Z,3.27
2018-09-20T22:26:54.776Z,3.53
2018-09-20T22:29:23.705Z,3.60
2018-09-20T22:31:52.770Z,2.97
2018-09-20T22:34:21.629Z,3.10
2018-09-20T22:36:50.641Z,3.43
2018-09-20T22:39:19.587Z,3.13
2018-09-20T22:41:49.673Z,3.30
2018-09-20T22:44:18.534Z,2.97
2018-09-20T22:46:47.549Z,3.63
2018-09-20T22:49:16.447Z,3.20
2018-09-20T22:51:45.492Z,3.40
2018-09-20T22:54:14.343Z,3.00
2018-09-20T22:56:43.393Z,2.77
2018-09-20T22:59:11.849Z,2.70
2018-09-20T23:01:41.698Z,2.70
2018-09-20T23:04:10.593Z,2.67
2018-09-20T23:06:39.548Z,3.17
2018-09-20T23:09:09.113Z,3.07
2018-09-20T23:11:38.542Z,2.80
2018-09-20T23:14:07.331Z,2.80
2018-09-20T23:16:36.326Z,3.17
2018-09-20T23:19:05.241Z,3.30
2018-09-20T23:21:34.254Z,2.97
2018-09-20T23:24:03.114Z,3.33
2018-09-20T23:26:32.129Z,3.33
2018-09-20T23:29:01.023Z,2.67
2018-09-20T23:31:29.620Z,3.03
2018-09-20T23:33:58.158Z,3.47
2018-09-20T23:36:27.132Z,2.80
2018-09-20T23:38:55.598Z,3.03
2018-09-20T23:41:24.265Z,3.07
2018-09-20T23:43:53.137Z,3.10
2018-09-20T23:46:22.113Z,3.43
2018-09-20T23:48:51.023Z,3.07
2018-09-20T23:51:20.041Z,3.10
2018-09-20T23:53:48.902Z,2.97
2018-09-20T23:56:18.928Z,2.87
2018-09-20T23:58:47.850Z,2.93
